• Join FlightAware (Why Join?)
  • Login
  • US Flag GB Flag 
02:25 EDT


 

Airport Tracker/Info


-or-


 

Live Flight TrackerFlight Track Log ✈ SKW6377 ✈ 03-May-2013 ✈ KDEN - KCPR

Flight Track Log - Related Links

Times and Time Zones

All times are in EDT time to prevent confusion due to time zone crossing. See the SKW6377 flight status page for this flight to view local times or setup timezone preferences in your user account.

Time Position Orientation Groundspeed Altitude Reporting Facility
EDT Latitude Longitude Course Direction KTS MPH feet Rate Location/Type
13:19 39.9167 -104.6833 346° North 176 203 7,000  Level Denver TRACON
13:20 39.9833 -104.6667 11° North 246 283 8,900 1,560 Climbing Denver TRACON
13:21 40.0500 -104.6667 360° North 272 313 10,000 840 Climbing Denver TRACON
13:22 40.1659 -104.7714 347° North  Level FlightAware Approximate
13:22 40.0725 -104.6625 North 264 304 10,000  Level Denver Center
13:23 40.2720 -104.8032 347° North  Level FlightAware Approximate
13:23 40.1486 -104.6828 348° North 277 319 10,900  Level Denver Center
13:24 40.3777 -104.8370 346° North  Level FlightAware Approximate
13:24 40.2378 -104.7056 349° North 300 345 13,700  Level Denver Center
13:25 40.4665 -104.8666 346° North  Level FlightAware Approximate
13:25 40.3208 -104.7281 348° North 310 357 15,600  Level Denver Center
13:26 40.4125 -104.7511 349° North 311 358 17,600 1,680 Climbing Denver Center
13:27 40.5003 -104.7753 348° North 321 369 19,100 1,440 Climbing Denver Center
13:28 40.5894 -104.7983 349° North 326 375 20,600 1,260 Climbing Denver Center
13:29 40.6875 -104.8256 348° North 338 389 22,000 1,140 Climbing Denver Center
13:30 40.7933 -104.8528 349° North 328 377 23,300 1,140 Climbing Denver Center
13:31 40.8850 -104.8992 339° North 345 397 24,400 1,080 Climbing Denver Center
13:32 40.9936 -104.9506 340° North 354 407 25,600 720 Climbing Denver Center
13:33 41.0828 -104.9950 339° North 360 414 26,000 180 Climbing Denver Center
13:34 41.1903 -105.0475 340° North 368 423 26,000  Level Denver Center
13:35 41.2669 -105.0856 340° North 369 425 26,000  Level Denver Center
13:36 41.3756 -105.1403 339° North 372 428 26,000  Level Denver Center
13:37 41.4831 -105.1958 339° North 372 428 26,000  Level Denver Center
13:38 41.5769 -105.2425 340° North 375 432 26,000  Level Denver Center
13:39 41.6803 -105.3128 333° Northwest 374 430 26,000  Level Denver Center
13:40 41.7706 -105.3739 333° Northwest 378 435 26,000  Level Denver Center
13:41 41.8750 -105.4422 334° Northwest 374 430 26,000  Level Denver Center
13:42 41.9653 -105.5033 333° Northwest 377 434 26,000  Level Denver Center
13:44 42.0703 -105.5731 334° Northwest 377 434 26,000  Level Denver Center
13:45 42.1583 -105.6333 333° Northwest 373 429 26,000  Level Denver Center
13:46 42.2322 -105.6836 333° Northwest 372 428 26,000 -960 Level Denver Center
13:47 42.3519 -105.7647 333° Northwest 374 430 24,100 -2,340 Descending Denver Center
13:48 42.4386 -105.8236 333° Northwest 364 419 21,200 -3,060 Descending Denver Center
13:49 42.5089 -105.8718 333° Northwest  Level FlightAware Approximate
13:49 42.5375 -105.8922 333° Northwest 358 412 17,800  Level Denver Center
13:50 42.6139 -105.9703 323° Northwest 359 413 15,100 -2,760 Descending Denver Center
13:51 42.6931 -106.0658 318° Northwest 350 403 12,100 -1,920 Descending Denver Center
13:52 42.7514 -106.1361 319° Northwest 315 362 11,200 -1,020 Descending Denver Center
13:53 42.8153 -106.2078 321° Northwest 279 321 10,000 -1,020 Descending Denver Center
13:54 42.8644 -106.2600 322° Northwest 255 293 9,000 -840 Descending Denver Center